Time;durP1;ratioP1;P1;durP2;ratioP2;P2;SDS_P1;SDS_P2;PMS_P1;PMS_P2;Temp;Humidity;BMP_temperature;BMP_pressure;BME280_temperature;BME280_humidity;BME280_pressure;Samples;Min_cycle;Max_cycle;Signal;HPM_P1;HPM_P2
2022/06/17 00:02:40;;;;;;;6.27;5.87;;;;;;;23.64;44.10;95375.75;6173668;28;102912;-68
2022/06/17 00:05:44;;;;;;;6.27;5.83;;;;;;;23.64;43.87;95362.41;6180754;28;102998;-67
2022/06/17 00:08:51;;;;;;;6.30;5.80;;;;;;;23.67;44.08;95364.44;6156863;28;104696;-68
2022/06/17 00:11:55;;;;;;;6.10;5.70;;;;;;;23.60;44.00;95358.78;6165896;28;103038;-68
2022/06/17 00:15:14;;;;;;;6.50;6.00;;;;;;;23.57;43.94;95354.03;6167015;28;106273;-68
2022/06/17 00:18:19;;;;;;;6.57;5.70;;;;;;;23.55;43.67;95348.22;6168470;28;104251;-68
2022/06/17 00:21:26;;;;;;;5.83;5.30;;;;;;;23.53;43.92;95347.75;6175371;28;104094;-68
2022/06/17 00:24:33;;;;;;;5.43;4.93;;;;;;;23.54;43.91;95354.66;6167728;28;103191;-68
2022/06/17 00:27:36;;;;;;;6.20;5.80;;;;;;;23.51;44.32;95360.59;6167901;28;103314;-67
2022/06/17 00:30:41;;;;;;;6.00;5.50;;;;;;;23.54;43.81;95360.78;6170840;28;104050;-70
2022/06/17 00:33:45;;;;;;;6.63;6.13;;;;;;;23.54;43.74;95365.34;6186128;28;103046;-69
2022/06/17 00:36:48;;;;;;;6.27;5.77;;;;;;;23.58;43.88;95355.63;6175218;28;103406;-68
2022/06/17 00:39:51;;;;;;;5.67;5.27;;;;;;;23.60;43.91;95353.44;6170758;28;103305;-69
2022/06/17 00:42:56;;;;;;;5.57;5.17;;;;;;;23.65;43.80;95347.16;6166242;28;103046;-68
2022/06/17 00:46:08;;;;;;;5.10;4.80;;;;;;;23.66;43.64;95357.53;6185055;28;103295;-69
2022/06/17 00:49:18;;;;;;;5.13;4.73;;;;;;;23.60;43.72;95346.19;6155505;28;103170;-67
2022/06/17 00:52:27;;;;;;;5.40;4.90;;;;;;;23.59;43.47;95339.28;6160589;28;104016;-67
2022/06/17 00:55:37;;;;;;;5.20;4.80;;;;;;;23.67;43.63;95344.97;6164030;28;103093;-67
2022/06/17 00:59:00;;;;;;;5.20;4.80;;;;;;;23.48;43.62;95350.53;6178242;28;103644;-68
2022/06/17 01:02:07;;;;;;;5.97;4.47;;;;;;;23.43;43.69;95348.00;6156357;28;103357;-69
2022/06/17 01:05:12;;;;;;;5.23;4.83;;;;;;;23.33;43.81;95343.69;6151692;28;103214;-68
2022/06/17 01:09:57;;;;;;;6.33;4.93;;;;;;;23.19;44.20;95342.97;6161206;28;106138;-68
2022/06/17 01:11:43;;;;;;;4.70;4.40;;;;;;;23.21;43.72;95352.25;6161898;28;103328;-64
2022/06/17 01:14:53;;;;;;;6.33;5.13;;;;;;;23.11;44.20;95347.16;6151728;28;102991;-64
2022/06/17 01:18:04;;;;;;;4.87;4.40;;;;;;;23.10;43.86;95334.91;6178381;28;103433;-65
2022/06/17 01:21:19;;;;;;;4.97;4.53;;;;;;;23.12;44.26;95343.38;6180515;28;102998;-64
2022/06/17 01:24:25;;;;;;;5.13;4.70;;;;;;;23.11;44.09;95333.81;6179853;28;103038;-65
2022/06/17 01:27:35;;;;;;;4.80;4.40;;;;;;;23.16;44.02;95327.53;6163417;28;103037;-64
2022/06/17 01:30:42;;;;;;;7.37;6.77;;;;;;;23.21;44.27;95327.44;6185172;28;105204;-65
2022/06/17 01:33:47;;;;;;;5.20;4.80;;;;;;;23.23;44.05;95326.03;6184020;28;103103;-65
2022/06/17 01:36:54;;;;;;;4.63;4.23;;;;;;;23.26;44.07;95332.63;6178517;28;103070;-66
2022/06/17 01:40:14;;;;;;;5.03;4.63;;;;;;;23.26;43.72;95328.09;6170243;28;103326;-64
2022/06/17 01:43:21;;;;;;;5.47;4.97;;;;;;;23.30;44.01;95318.41;6182873;28;102944;-63
2022/06/17 01:46:34;;;;;;;6.50;5.80;;;;;;;23.33;43.86;95310.84;6175557;28;105082;-65
2022/06/17 01:49:42;;;;;;;5.40;4.90;;;;;;;23.36;43.90;95303.03;6161105;28;102960;-65
2022/06/17 01:52:55;;;;;;;5.20;4.80;;;;;;;23.30;44.20;95307.72;6184698;28;105144;-74
2022/06/17 01:56:05;;;;;;;6.03;5.50;;;;;;;23.30;43.78;95315.72;6146657;28;103041;-71
2022/06/17 01:59:14;;;;;;;5.53;4.83;;;;;;;23.26;43.95;95300.59;6159139;28;103247;-75
2022/06/17 02:02:18;;;;;;;5.07;4.43;;;;;;;23.28;44.57;95306.41;6159628;28;103305;-73
2022/06/17 02:05:24;;;;;;;5.07;4.67;;;;;;;23.14;44.51;95303.81;6184000;28;103246;-72
2022/06/17 02:08:28;;;;;;;4.67;4.27;;;;;;;23.19;44.56;95306.38;6175064;28;103368;-72
2022/06/17 02:11:33;;;;;;;5.87;4.20;;;;;;;23.33;43.80;95305.53;6168855;28;102903;-74
2022/06/17 02:14:36;;;;;;;5.23;4.73;;;;;;;23.35;44.28;95304.13;6188570;28;103612;-73
2022/06/17 02:17:45;;;;;;;4.10;3.80;;;;;;;23.48;43.97;95318.47;6185663;28;103445;-73
2022/06/17 02:20:55;;;;;;;5.57;5.00;;;;;;;23.56;44.13;95323.09;6188708;28;105084;-71
2022/06/17 02:24:00;;;;;;;5.00;4.60;;;;;;;23.59;43.89;95341.16;6178652;28;103412;-73
2022/06/17 02:27:09;;;;;;;5.00;4.63;;;;;;;23.57;43.90;95338.00;6183532;28;103741;-69
2022/06/17 02:30:16;;;;;;;5.53;5.10;;;;;;;23.71;43.92;95333.38;6166278;28;103151;-69
2022/06/17 02:33:23;;;;;;;4.80;4.50;;;;;;;23.77;43.81;95332.13;6165456;28;103393;-69
2022/06/17 02:36:33;;;;;;;5.40;5.00;;;;;;;23.80;43.63;95331.50;6176540;28;104094;-70
2022/06/17 02:39:43;;;;;;;4.90;4.50;;;;;;;23.79;43.49;95329.91;6171274;28;103001;-70
2022/06/17 02:42:47;;;;;;;5.20;4.90;;;;;;;23.76;43.32;95327.88;6139791;28;103059;-69
2022/06/17 02:45:54;;;;;;;5.00;4.60;;;;;;;23.76;43.13;95327.09;6165978;28;103379;-69
2022/06/17 02:49:00;;;;;;;5.80;5.30;;;;;;;23.78;43.54;95330.22;6158927;28;103511;-71
2022/06/17 02:52:08;;;;;;;5.10;4.70;;;;;;;23.81;43.46;95316.25;6160265;28;105398;-69
2022/06/17 02:55:17;;;;;;;4.23;3.83;;;;;;;23.81;43.44;95327.72;6177307;28;103005;-69
2022/06/17 02:58:55;;;;;;;5.00;4.60;;;;;;;23.81;43.30;95316.25;6166389;28;105310;-69
2022/06/17 03:02:03;;;;;;;5.27;4.30;;;;;;;23.79;43.34;95319.22;6182642;28;103579;-70
2022/06/17 03:05:16;;;;;;;4.60;4.20;;;;;;;23.82;43.07;95328.50;6180991;28;103132;-68
2022/06/17 03:08:23;;;;;;;4.90;4.17;;;;;;;23.82;43.35;95325.84;6164252;28;106864;-71
2022/06/17 03:11:29;;;;;;;4.17;3.93;;;;;;;23.81;43.44;95327.72;6164704;28;105165;-70
2022/06/17 03:14:43;;;;;;;4.63;4.20;;;;;;;23.88;43.08;95338.78;6164235;28;106053;-70
2022/06/17 03:17:47;;;;;;;5.47;4.97;;;;;;;23.90;43.09;95331.22;6168450;28;104229;-70
2022/06/17 03:20:51;;;;;;;4.93;4.30;;;;;;;23.87;43.06;95323.84;6173740;28;103522;-72
2022/06/17 03:24:02;;;;;;;4.80;4.40;;;;;;;23.75;42.98;95330.84;6187343;28;103118;-70
2022/06/17 03:27:10;;;;;;;4.70;4.40;;;;;;;23.79;43.34;95329.13;6181321;28;103822;-69
2022/06/17 03:30:23;;;;;;;4.17;3.87;;;;;;;23.86;43.35;95329.50;6174613;28;103768;-68
2022/06/17 03:33:38;;;;;;;5.23;4.03;;;;;;;23.69;43.71;95330.22;6159484;28;103080;-70
2022/06/17 03:36:47;;;;;;;6.60;6.00;;;;;;;23.77;43.08;95337.47;6173956;28;102995;-70
2022/06/17 03:39:55;;;;;;;6.47;5.97;;;;;;;23.82;43.58;95326.63;6154704;28;105498;-69
2022/06/17 03:43:05;;;;;;;6.53;5.10;;;;;;;23.81;44.59;95337.63;6144325;28;103324;-69
2022/06/17 03:46:10;;;;;;;5.33;4.93;;;;;;;23.89;45.72;95335.00;6159022;28;103548;-70
2022/06/17 03:49:18;;;;;;;6.63;5.40;;;;;;;23.96;45.30;95339.09;6150343;28;103107;-70
2022/06/17 03:52:28;;;;;;;5.23;4.83;;;;;;;24.03;44.76;95340.25;6157812;28;104329;-69
2022/06/17 03:55:32;;;;;;;5.40;5.00;;;;;;;24.05;44.50;95345.28;6164308;28;103484;-68
2022/06/17 03:58:39;;;;;;;5.03;4.63;;;;;;;24.05;44.24;95353.31;6168626;28;103390;-70
2022/06/17 04:01:47;;;;;;;6.07;5.47;;;;;;;23.98;43.97;95358.28;6176016;28;105185;-69
2022/06/17 04:04:53;;;;;;;7.03;5.30;;;;;;;23.98;44.18;95364.41;6152567;28;103062;-69
2022/06/17 04:07:57;;;;;;;5.73;5.10;;;;;;;24.05;44.60;95356.78;6133889;28;104127;-67
2022/06/17 04:11:00;;;;;;;5.23;4.40;;;;;;;24.11;44.85;95360.09;6160455;28;103335;-69
2022/06/17 04:14:06;;;;;;;7.70;6.90;;;;;;;24.15;45.08;95356.47;6173408;28;104975;-68
2022/06/17 04:17:17;;;;;;;13.27;11.93;;;;;;;24.15;45.49;95358.34;6150462;28;103578;-67
2022/06/17 04:20:36;;;;;;;10.63;8.90;;;;;;;24.14;44.93;95362.13;6164459;28;103151;-68
2022/06/17 04:23:40;;;;;;;9.80;8.80;;;;;;;24.14;44.91;95359.47;6159926;28;106330;-68
2022/06/17 04:26:46;;;;;;;8.60;7.30;;;;;;;24.04;44.72;95367.78;6136285;28;103191;-67
2022/06/17 04:29:53;;;;;;;7.27;6.57;;;;;;;24.01;44.25;95374.50;6128318;28;103267;-68
2022/06/17 04:33:07;;;;;;;8.30;7.03;;;;;;;24.04;44.33;95373.13;6138734;28;103573;-69
2022/06/17 04:36:25;;;;;;;7.50;6.90;;;;;;;24.04;44.43;95373.13;6137879;28;103130;-70
2022/06/17 04:39:41;;;;;;;7.03;5.60;;;;;;;24.03;44.06;95372.34;6127519;28;103212;-70
2022/06/17 04:42:48;;;;;;;5.40;5.00;;;;;;;24.01;43.87;95363.81;6136332;28;102941;-69
2022/06/17 04:46:21;;;;;;;6.70;6.10;;;;;;;24.03;44.14;95371.56;6136075;28;103127;-70
2022/06/17 04:49:32;;;;;;;5.90;5.40;;;;;;;24.01;43.92;95358.47;6136794;28;104951;-69
2022/06/17 04:52:41;;;;;;;5.73;5.23;;;;;;;24.01;44.29;95363.03;6130680;28;103224;-69
2022/06/17 04:55:45;;;;;;;6.10;5.60;;;;;;;24.02;43.97;95365.41;6136681;28;102780;-68
2022/06/17 04:58:49;;;;;;;6.00;5.47;;;;;;;24.04;44.41;95362.44;6137797;28;103094;-70
2022/06/17 05:01:57;;;;;;;5.90;5.43;;;;;;;24.05;44.52;95369.34;6128762;28;103042;-68
2022/06/17 05:05:08;;;;;;;5.60;5.10;;;;;;;24.08;44.19;95366.84;6137330;28;103471;-67
2022/06/17 05:08:16;;;;;;;5.50;5.10;;;;;;;24.10;44.52;95361.19;6138255;28;103370;-67
2022/06/17 05:11:27;;;;;;;5.73;5.23;;;;;;;24.09;44.61;95364.97;6138091;28;105428;-68
2022/06/17 05:14:41;;;;;;;5.37;5.00;;;;;;;24.11;44.74;95366.22;6128577;28;104486;-68
2022/06/17 05:17:45;;;;;;;5.70;5.20;;;;;;;24.13;44.88;95363.22;6137501;28;102917;-67
2022/06/17 05:20:50;;;;;;;6.50;5.80;;;;;;;24.13;44.79;95368.59;6140679;28;106383;-69
2022/06/17 05:23:56;;;;;;;6.37;5.87;;;;;;;24.12;44.52;95359.00;6137167;28;103576;-68
2022/06/17 05:26:59;;;;;;;6.87;6.27;;;;;;;24.11;45.11;95352.06;6144686;28;103519;-68
2022/06/17 05:30:03;;;;;;;6.10;5.53;;;;;;;24.13;45.05;95357.88;6166246;28;103282;-68
2022/06/17 05:33:07;;;;;;;5.97;5.40;;;;;;;24.13;45.23;95360.56;6166197;28;103444;-68
2022/06/17 05:36:12;;;;;;;7.23;6.50;;;;;;;24.18;45.24;95357.72;6156578;28;103803;-68
2022/06/17 05:39:15;;;;;;;6.87;6.33;;;;;;;24.24;45.10;95361.06;6165511;28;103014;-68
2022/06/17 05:42:18;;;;;;;7.20;6.50;;;;;;;24.27;45.22;95355.88;6165390;28;103109;-67
2022/06/17 05:45:23;;;;;;;6.80;6.30;;;;;;;24.30;45.10;95349.13;6165679;28;103299;-68
2022/06/17 05:48:27;;;;;;;7.43;6.80;;;;;;;24.33;45.24;95359.97;6156181;28;102937;-69
2022/06/17 05:51:32;;;;;;;7.30;6.70;;;;;;;24.35;45.15;95344.41;6165687;28;103225;-68
2022/06/17 05:54:35;;;;;;;7.30;6.73;;;;;;;24.38;45.18;95348.34;6165409;28;103410;-68
2022/06/17 05:57:38;;;;;;;7.43;6.73;;;;;;;24.42;45.42;95341.28;6163646;28;103180;-68
2022/06/17 06:00:42;;;;;;;6.90;6.20;;;;;;;24.47;45.97;95347.25;6159098;28;102968;-66
2022/06/17 06:03:45;;;;;;;6.77;6.17;;;;;;;24.49;45.64;95345.03;6165283;28;103338;-66
2022/06/17 06:06:51;;;;;;;6.97;6.37;;;;;;;24.55;45.44;95344.91;6165258;28;103560;-67
2022/06/17 06:09:54;;;;;;;7.00;6.30;;;;;;;24.57;45.13;95342.72;6156055;28;104082;-68
2022/06/17 06:13:00;;;;;;;7.80;7.20;;;;;;;24.60;45.16;95342.84;6164509;28;103282;-68
2022/06/17 06:16:04;;;;;;;9.23;8.43;;;;;;;24.61;45.09;95336.41;6165858;28;103024;-68
2022/06/17 06:19:07;;;;;;;10.03;7.70;;;;;;;24.62;45.17;95329.16;6164355;28;103453;-68
2022/06/17 06:22:12;;;;;;;9.23;8.43;;;;;;;24.65;44.72;95336.56;6155325;28;105717;-68
2022/06/17 06:25:18;;;;;;;7.23;6.67;;;;;;;24.63;44.83;95338.75;6164781;28;102869;-68
2022/06/17 06:28:23;;;;;;;8.57;7.77;;;;;;;24.66;44.59;95336.25;6162788;28;103052;-68
2022/06/17 06:31:30;;;;;;;7.03;6.30;;;;;;;24.69;44.73;95340.19;6163412;28;103258;-74
2022/06/17 06:34:33;;;;;;;9.43;6.50;;;;;;;24.71;44.02;95338.81;6154543;28;103366;-71
2022/06/17 06:37:39;;;;;;;9.13;6.87;;;;;;;24.72;43.92;95334.25;6165073;28;102648;-69
2022/06/17 06:40:42;;;;;;;11.20;6.90;;;;;;;24.75;43.34;95330.94;6164013;28;102897;-71
2022/06/17 06:43:46;;;;;;;7.80;7.00;;;;;;;24.80;43.38;95336.13;6157735;28;103655;-68
2022/06/17 06:46:50;;;;;;;8.53;6.73;;;;;;;24.84;43.65;95334.38;6162859;28;105067;-70
2022/06/17 06:49:54;;;;;;;8.17;6.70;;;;;;;24.85;43.54;95324.44;6165242;28;102981;-69
2022/06/17 06:52:59;;;;;;;7.50;6.50;;;;;;;24.85;43.79;95324.44;6164054;28;103554;-71
2022/06/17 06:56:03;;;;;;;9.93;5.93;;;;;;;24.89;43.77;95318.16;6153007;28;103514;-70
2022/06/17 06:59:06;;;;;;;7.43;5.40;;;;;;;24.90;43.87;95319.75;6162975;28;103387;-71
2022/06/17 07:02:10;;;;;;;7.53;5.50;;;;;;;24.93;43.68;95319.09;6163429;28;102932;-70
2022/06/17 07:05:14;;;;;;;6.40;5.77;;;;;;;24.97;43.51;95320.03;6164024;28;103626;-70
2022/06/17 07:08:20;;;;;;;7.80;6.60;;;;;;;24.98;43.79;95318.16;6154624;28;103220;-71
2022/06/17 07:11:24;;;;;;;8.30;6.00;;;;;;;24.97;43.74;95320.03;6163154;28;103309;-70
2022/06/17 07:14:27;;;;;;;8.77;6.10;;;;;;;24.98;43.98;95323.50;6163275;28;103333;-73
2022/06/17 07:17:30;;;;;;;7.83;6.17;;;;;;;25.03;43.87;95318.78;6157586;28;103133;-71
2022/06/17 07:20:38;;;;;;;7.33;6.17;;;;;;;24.96;43.90;95326.50;6158775;28;103287;-71
2022/06/17 07:23:44;;;;;;;12.40;9.10;;;;;;;24.95;44.38;95319.56;6163280;28;103509;-72
2022/06/17 07:26:48;;;;;;;9.97;8.00;;;;;;;24.99;43.71;95323.19;6163065;28;102783;-72
2022/06/17 07:29:51;;;;;;;7.47;6.73;;;;;;;25.01;43.94;95317.50;6151356;28;106177;-71
2022/06/17 07:32:55;;;;;;;7.67;6.70;;;;;;;25.03;44.13;95313.44;6163353;28;103513;-71
2022/06/17 07:36:01;;;;;;;7.50;6.37;;;;;;;25.08;43.91;95309.78;6162631;28;103043;-71
2022/06/17 07:42:40;;;;;;;8.20;6.80;;;;;;;25.16;43.78;95305.50;6118506;28;103722;-69
2022/06/17 07:45:45;;;;;;;8.63;6.43;;;;;;;25.16;43.77;95305.50;6162975;28;103348;-70
2022/06/17 07:48:48;;;;;;;7.60;6.80;;;;;;;25.17;43.52;95302.50;6162322;28;103045;-69
2022/06/17 07:51:51;;;;;;;6.60;5.97;;;;;;;25.21;43.75;95300.78;6152965;28;103380;-70
2022/06/17 07:54:56;;;;;;;6.70;6.10;;;;;;;25.25;43.98;95300.94;6162134;28;103403;-69
2022/06/17 07:57:59;;;;;;;6.47;5.80;;;;;;;25.28;43.65;95297.59;6163393;28;103497;-69
2022/06/17 08:01:02;;;;;;;6.30;5.70;;;;;;;25.31;43.83;95296.97;6161313;28;103354;-71
2022/06/17 08:04:06;;;;;;;7.30;6.60;;;;;;;25.33;43.78;95295.53;6153332;28;103584;-69
2022/06/17 08:07:11;;;;;;;7.20;6.50;;;;;;;25.33;44.01;95292.84;6162281;28;103042;-69
2022/06/17 08:10:18;;;;;;;8.37;7.30;;;;;;;25.35;43.40;95297.91;6162139;28;103205;-69
2022/06/17 08:13:22;;;;;;;7.87;6.60;;;;;;;25.36;43.71;95294.13;6162557;28;103139;-69
2022/06/17 08:16:25;;;;;;;6.93;6.10;;;;;;;25.36;43.71;95288.78;6153178;28;103393;-68
2022/06/17 08:19:29;;;;;;;8.77;7.53;;;;;;;25.34;44.11;95294.44;6161860;28;103080;-70
2022/06/17 08:22:33;;;;;;;7.93;6.97;;;;;;;25.36;43.87;95292.25;6162060;28;103242;-71
2022/06/17 08:25:39;;;;;;;7.70;7.00;;;;;;;25.38;43.67;95291.94;6154884;28;103373;-68
2022/06/17 08:28:43;;;;;;;7.90;7.23;;;;;;;25.41;43.66;95282.47;6160478;28;104541;-69
2022/06/17 08:31:46;;;;;;;7.43;6.73;;;;;;;25.42;43.77;95281.38;6160334;28;103428;-69
2022/06/17 08:34:49;;;;;;;7.00;6.40;;;;;;;25.43;43.85;95275.69;6156097;28;103400;-71
2022/06/17 08:37:55;;;;;;;7.93;7.13;;;;;;;25.45;43.49;95268.09;6149643;28;103034;-69
2022/06/17 08:41:03;;;;;;;8.90;6.90;;;;;;;25.46;44.16;95267.00;6160368;28;104082;-69
2022/06/17 08:44:42;;;;;;;8.03;6.73;;;;;;;25.45;43.98;95262.75;6161686;28;104125;-70
2022/06/17 08:48:02;;;;;;;8.43;7.03;;;;;;;25.46;44.01;95260.84;6157840;28;104632;-70
2022/06/17 08:51:18;;;;;;;7.57;6.90;;;;;;;25.48;44.10;95269.34;6156245;28;103267;-69
2022/06/17 08:54:31;;;;;;;8.80;8.10;;;;;;;25.46;44.46;95264.31;6152437;28;104901;-69
2022/06/17 08:58:04;;;;;;;8.17;7.30;;;;;;;25.49;44.36;95269.03;6160860;28;102932;-69
2022/06/17 09:01:14;;;;;;;9.73;8.80;;;;;;;25.52;44.21;95260.34;6150971;28;106101;-70
2022/06/17 09:04:35;;;;;;;10.60;9.30;;;;;;;25.55;44.13;95266.97;6159454;28;105121;-71
2022/06/17 09:07:45;;;;;;;10.57;9.47;;;;;;;25.58;44.29;95263.66;6158833;28;103296;-69
2022/06/17 09:10:57;;;;;;;9.33;8.43;;;;;;;25.53;44.46;95259.22;6155322;28;103329;-70
2022/06/17 09:14:17;;;;;;;9.47;8.60;;;;;;;25.55;44.43;95254.34;6155949;28;103615;-69
2022/06/17 09:17:28;;;;;;;9.43;8.63;;;;;;;25.54;44.61;95260.00;6160195;28;106269;-69
2022/06/17 09:20:36;;;;;;;10.70;9.00;;;;;;;25.52;44.04;95260.34;6159464;28;103041;-69
2022/06/17 09:23:49;;;;;;;9.37;8.50;;;;;;;25.54;44.38;95260.84;6151404;28;102966;-70
2022/06/17 09:26:59;;;;;;;9.10;8.20;;;;;;;25.49;44.44;95255.63;6161001;28;106261;-71
2022/06/17 09:30:12;;;;;;;9.27;8.33;;;;;;;25.52;44.50;95256.88;6162121;28;102922;-69
2022/06/17 09:33:22;;;;;;;8.50;7.80;;;;;;;25.50;44.20;95254.53;6157579;28;103821;-69
2022/06/17 09:36:34;;;;;;;8.30;7.70;;;;;;;25.48;44.31;95254.06;6156030;28;103503;-70
2022/06/17 09:39:43;;;;;;;8.93;8.13;;;;;;;25.46;44.39;95255.50;6161390;28;104305;-71
2022/06/17 09:42:54;;;;;;;9.00;8.30;;;;;;;25.48;44.44;95242.56;6163045;28;103540;-71
2022/06/17 09:46:05;;;;;;;9.33;8.63;;;;;;;25.50;44.38;95241.13;6152299;28;104883;-72
2022/06/17 09:49:18;;;;;;;8.67;7.87;;;;;;;25.47;44.30;95241.78;6162438;28;103160;-72
2022/06/17 09:52:27;;;;;;;9.83;9.03;;;;;;;25.47;44.53;95241.78;6161449;28;102668;-70
2022/06/17 09:55:35;;;;;;;10.40;9.47;;;;;;;25.43;44.50;95243.53;6161557;28;104736;-70
2022/06/17 09:58:44;;;;;;;9.40;8.70;;;;;;;25.44;44.26;95242.41;6152181;28;102856;-70
2022/06/17 10:01:49;;;;;;;9.73;8.93;;;;;;;25.46;44.48;95244.78;6161845;28;106448;-71
2022/06/17 10:04:53;;;;;;;9.03;8.20;;;;;;;25.45;44.48;95238.63;6161765;28;102841;-71
2022/06/17 10:08:08;;;;;;;8.87;8.10;;;;;;;25.41;44.42;95243.06;6155425;28;103430;-70
2022/06/17 10:11:18;;;;;;;9.13;8.53;;;;;;;25.38;44.36;95241.81;6164667;28;103115;-69
2022/06/17 10:14:37;;;;;;;9.63;8.83;;;;;;;25.37;44.38;95236.75;6165602;28;102957;-69
2022/06/17 10:21:35;;;;;;;8.63;7.93;;;;;;;25.33;44.42;95231.25;6157828;28;104573;-68
2022/06/17 10:24:51;;;;;;;8.30;7.50;;;;;;;25.32;43.91;95228.88;6165805;28;103314;-71
2022/06/17 10:28:13;;;;;;;8.30;7.40;;;;;;;25.34;43.54;95234.69;6164924;28;104920;-70
2022/06/17 10:31:30;;;;;;;9.07;8.37;;;;;;;25.36;43.55;95229.84;6156483;28;106280;-70
2022/06/17 10:34:43;;;;;;;8.20;7.60;;;;;;;25.34;43.44;95219.41;6165889;28;102999;-71
2022/06/17 10:37:46;;;;;;;8.73;8.00;;;;;;;25.32;43.73;95218.94;6165806;28;102728;-72
2022/06/17 10:40:56;;;;;;;8.20;7.50;;;;;;;25.32;43.74;95223.53;6165355;28;103174;-71
2022/06/17 10:44:01;;;;;;;8.80;8.00;;;;;;;25.30;43.68;95215.81;6155114;28;103542;-72
2022/06/17 10:47:24;;;;;;;8.27;7.57;;;;;;;25.27;43.26;95221.81;6164283;28;103582;-71
2022/06/17 10:50:31;;;;;;;9.20;8.37;;;;;;;25.28;43.99;95222.59;6164510;28;105832;-71
2022/06/17 10:53:45;;;;;;;8.03;7.47;;;;;;;25.26;43.68;95209.53;6155155;28;103550;-71
2022/06/17 10:57:01;;;;;;;9.23;8.57;;;;;;;25.29;43.84;95211.56;6164589;28;103010;-71
2022/06/17 11:00:24;;;;;;;8.80;8.03;;;;;;;25.25;43.58;95217.91;6164325;28;102762;-70
2022/06/17 11:03:31;;;;;;;8.23;7.63;;;;;;;25.23;43.82;95222.78;6165063;28;104156;-70
2022/06/17 11:06:50;;;;;;;8.80;8.20;;;;;;;25.24;43.73;95224.34;6156022;28;103630;-70
2022/06/17 11:09:56;;;;;;;8.73;8.03;;;;;;;25.26;43.83;95219.47;6164680;28;106139;-73
2022/06/17 11:13:02;;;;;;;9.03;8.27;;;;;;;25.24;44.05;95210.97;6162738;28;103039;-70
2022/06/17 11:16:06;;;;;;;8.20;7.60;;;;;;;25.21;43.72;95216.97;6153874;28;104375;-72
2022/06/17 11:19:15;;;;;;;9.07;8.30;;;;;;;25.21;43.81;95208.94;6162307;28;102980;-70
2022/06/17 11:22:30;;;;;;;7.67;7.00;;;;;;;25.21;43.19;95214.28;6162965;28;103041;-71
2022/06/17 11:25:37;;;;;;;8.10;7.53;;;;;;;25.19;43.36;95205.75;6163033;28;103348;-69
2022/06/17 11:28:44;;;;;;;8.80;8.20;;;;;;;25.21;43.23;95192.88;6152939;28;103030;-71
2022/06/17 11:31:49;;;;;;;8.80;8.00;;;;;;;25.20;43.38;95196.63;6163237;28;103070;-70
2022/06/17 11:34:56;;;;;;;8.10;7.50;;;;;;;25.20;43.39;95199.31;6163799;28;103065;-70
2022/06/17 11:38:03;;;;;;;9.07;8.27;;;;;;;25.19;43.08;95182.44;6162078;28;102968;-69
2022/06/17 11:41:07;;;;;;;9.20;8.50;;;;;;;25.20;43.24;95188.59;6158217;28;103019;-71
2022/06/17 11:44:16;;;;;;;9.07;8.37;;;;;;;25.19;42.85;95192.38;6161830;28;103216;-71
2022/06/17 11:47:22;;;;;;;8.40;7.83;;;;;;;25.15;43.51;95189.56;6163165;28;103543;-70
2022/06/17 11:50:30;;;;;;;9.73;9.00;;;;;;;25.12;43.06;95192.09;6154236;28;103808;-68
2022/06/17 11:53:45;;;;;;;9.23;8.30;;;;;;;25.07;43.29;95188.50;6163425;28;103710;-69
2022/06/17 11:56:50;;;;;;;10.40;9.70;;;;;;;25.04;42.98;95175.75;6163505;28;103431;-69
2022/06/17 11:59:57;;;;;;;9.97;9.10;;;;;;;25.04;43.02;95189.16;6163055;28;106723;-70
2022/06/17 12:03:02;;;;;;;9.30;8.60;;;;;;;25.06;43.20;95188.81;6152556;28;102975;-69
2022/06/17 12:06:18;;;;;;;10.60;9.70;;;;;;;25.06;43.18;95189.63;6162044;28;102976;-70
2022/06/17 12:09:31;;;;;;;10.27;9.47;;;;;;;25.07;42.92;95185.81;6163368;28;103069;-71
2022/06/17 12:12:35;;;;;;;10.00;9.30;;;;;;;25.08;43.16;95178.56;6157448;28;103160;-72
2022/06/17 12:15:44;;;;;;;9.77;9.17;;;;;;;25.07;43.20;95172.44;6156377;28;103678;-71
2022/06/17 12:18:51;;;;;;;9.77;9.07;;;;;;;25.10;43.02;95179.03;6162688;28;103728;-71
2022/06/17 12:21:59;;;;;;;10.50;9.70;;;;;;;25.09;43.45;95177.47;6162170;28;103333;-70
2022/06/17 12:25:16;;;;;;;10.10;9.40;;;;;;;25.08;43.40;95173.22;6153064;28;103056;-71
2022/06/17 12:28:31;;;;;;;10.40;9.70;;;;;;;25.09;43.22;95169.44;6162218;28;102938;-70
2022/06/17 12:31:46;;;;;;;10.40;9.60;;;;;;;25.09;43.22;95166.75;6161648;28;104042;-71
2022/06/17 12:34:59;;;;;;;10.40;9.70;;;;;;;25.10;43.22;95160.28;6157771;28;102992;-70
2022/06/17 12:38:10;;;;;;;11.13;10.33;;;;;;;25.11;43.19;95166.44;6158317;28;105931;-70
2022/06/17 12:41:22;;;;;;;10.00;9.30;;;;;;;25.11;42.85;95153.81;6162014;28;103020;-71
2022/06/17 12:44:44;;;;;;;9.90;9.03;;;;;;;25.09;42.85;95151.47;6162002;28;103377;-72
2022/06/17 12:48:00;;;;;;;9.87;9.17;;;;;;;25.09;42.58;95156.81;6151384;28;103365;-70
2022/06/17 12:54:55;;;;;;;8.60;8.00;;;;;;;25.08;42.42;95152.59;6162299;28;105514;-70
2022/06/17 12:58:17;;;;;;;8.43;7.73;;;;;;;25.11;42.18;95153.03;6157681;28;103970;-70
2022/06/17 13:01:25;;;;;;;7.63;7.13;;;;;;;25.09;42.07;95156.03;6162254;28;103113;-72
2022/06/17 13:04:50;;;;;;;7.80;7.20;;;;;;;25.08;42.19;95152.59;6161650;28;103185;-70
2022/06/17 13:08:10;;;;;;;8.37;7.77;;;;;;;25.08;41.98;95157.94;6162340;28;103333;-72
2022/06/17 13:11:20;;;;;;;7.53;7.03;;;;;;;25.07;41.93;95151.00;6151443;28;103058;-71
2022/06/17 13:14:32;;;;;;;6.80;6.40;;;;;;;25.09;41.93;95145.34;6162209;28;103523;-71
2022/06/17 13:17:42;;;;;;;7.17;6.57;;;;;;;25.09;41.76;95139.97;6161906;28;103285;-70
2022/06/17 13:20:53;;;;;;;6.60;6.10;;;;;;;25.07;42.10;95145.66;6152884;28;104767;-69
2022/06/17 13:24:03;;;;;;;6.57;6.07;;;;;;;25.06;41.70;95144.09;6160937;28;103123;-70
2022/06/17 13:27:24;;;;;;;6.47;6.07;;;;;;;25.05;41.79;95145.19;6160453;28;103056;-71
2022/06/17 13:30:32;;;;;;;6.37;5.93;;;;;;;25.04;41.56;95138.28;6161162;28;102931;-72
2022/06/17 13:33:40;;;;;;;6.87;6.40;;;;;;;25.04;41.30;95143.63;6150407;28;103237;-72
2022/06/17 13:36:51;;;;;;;5.97;5.57;;;;;;;25.06;41.36;95140.63;6161512;28;103722;-72
2022/06/17 13:39:59;;;;;;;5.83;5.40;;;;;;;25.04;41.32;95135.59;6161706;28;104905;-74
2022/06/17 13:43:09;;;;;;;6.13;5.73;;;;;;;25.04;41.40;95143.63;6161181;28;103265;-74
2022/06/17 13:46:21;;;;;;;6.00;5.60;;;;;;;25.03;41.43;95142.06;6162431;28;103644;-74
2022/06/17 13:49:35;;;;;;;6.23;5.77;;;;;;;25.04;41.27;95137.50;6164515;28;102703;-74
2022/06/17 13:52:44;;;;;;;6.33;5.93;;;;;;;25.04;41.55;95140.16;6165179;28;103400;-74
2022/06/17 13:55:54;;;;;;;6.23;5.83;;;;;;;25.03;41.37;95128.66;6155628;28;103772;-74
2022/06/17 13:59:00;;;;;;;6.17;5.67;;;;;;;25.03;41.25;95126.00;6164762;28;103009;-74
2022/06/17 14:02:23;;;;;;;6.10;5.70;;;;;;;25.03;40.79;95134.03;6166678;28;103097;-74
2022/06/17 14:05:30;;;;;;;5.70;5.27;;;;;;;25.05;41.21;95128.34;6160610;28;105868;-76
2022/06/17 14:08:53;;;;;;;6.13;5.73;;;;;;;25.04;41.14;95132.91;6159579;28;103331;-73
2022/06/17 14:12:44;;;;;;;5.37;5.00;;;;;;;25.04;40.81;95124.09;6164712;28;102945;-71
2022/06/17 14:15:50;;;;;;;5.60;5.20;;;;;;;25.04;40.87;95132.91;6165205;28;102666;-72
2022/06/17 14:18:58;;;;;;;5.90;5.50;;;;;;;25.06;40.55;95129.91;6155281;28;103126;-72
2022/06/17 14:22:03;;;;;;;5.57;5.17;;;;;;;25.06;40.73;95130.69;6164706;28;103178;-72
2022/06/17 14:25:27;;;;;;;5.93;5.50;;;;;;;25.07;40.75;95126.91;6164617;28;103045;-72
2022/06/17 14:28:33;;;;;;;5.80;5.40;;;;;;;25.06;40.80;95125.34;6159516;28;103395;-71
2022/06/17 14:31:38;;;;;;;5.67;5.30;;;;;;;25.08;41.09;95122.34;6161368;28;103321;-71
2022/06/17 14:35:12;;;;;;;5.77;5.37;;;;;;;25.07;40.93;95116.19;6163763;28;103627;-71
2022/06/17 14:38:21;;;;;;;5.40;4.90;;;;;;;25.07;41.33;95116.19;6148251;28;103017;-71
2022/06/17 14:45:47;;;;;;;5.20;4.90;;;;;;;25.08;41.09;95103.59;6164139;28;103105;-72
2022/06/17 14:48:52;;;;;;;5.90;5.50;;;;;;;25.07;41.06;95105.50;6166168;28;103675;-73
2022/06/17 14:52:03;;;;;;;5.53;5.23;;;;;;;25.08;40.71;95111.63;6157126;28;104898;-72
2022/06/17 14:55:19;;;;;;;5.00;4.70;;;;;;;25.07;41.14;95105.50;6167424;28;103594;-71